sensor_id;sensor_type;location;lat;lon;timestamp;P1;durP1;ratioP1;P2;durP2;ratioP2
64543;SDS011;50936;51.660;5.616;2023-08-30T00:01:20;4.07;;;2.20;;
64543;SDS011;50936;51.660;5.616;2023-08-30T00:04:07;4.75;;;2.40;;
64543;SDS011;50936;51.660;5.616;2023-08-30T00:06:54;4.95;;;2.35;;
64543;SDS011;50936;51.660;5.616;2023-08-30T00:09:41;4.70;;;2.50;;
64543;SDS011;50936;51.660;5.616;2023-08-30T00:12:29;3.50;;;2.33;;
64543;SDS011;50936;51.660;5.616;2023-08-30T00:15:16;4.90;;;2.70;;
64543;SDS011;50936;51.660;5.616;2023-08-30T00:18:04;5.57;;;2.40;;
64543;SDS011;50936;51.660;5.616;2023-08-30T00:20:51;4.78;;;2.60;;
64543;SDS011;50936;51.660;5.616;2023-08-30T00:23:39;4.82;;;2.95;;
64543;SDS011;50936;51.660;5.616;2023-08-30T00:26:27;5.03;;;2.78;;
64543;SDS011;50936;51.660;5.616;2023-08-30T00:29:15;5.28;;;2.60;;
64543;SDS011;50936;51.660;5.616;2023-08-30T00:32:02;4.85;;;2.50;;
64543;SDS011;50936;51.660;5.616;2023-08-30T00:34:50;4.78;;;2.40;;
64543;SDS011;50936;51.660;5.616;2023-08-30T00:37:38;4.60;;;2.50;;
64543;SDS011;50936;51.660;5.616;2023-08-30T00:40:25;5.25;;;2.70;;
64543;SDS011;50936;51.660;5.616;2023-08-30T00:43:13;5.22;;;2.70;;
64543;SDS011;50936;51.660;5.616;2023-08-30T00:46:00;4.28;;;2.70;;
64543;SDS011;50936;51.660;5.616;2023-08-30T00:48:47;3.90;;;2.25;;
64543;SDS011;50936;51.660;5.616;2023-08-30T00:51:35;5.05;;;2.88;;
64543;SDS011;50936;51.660;5.616;2023-08-30T00:54:22;4.80;;;2.63;;
64543;SDS011;50936;51.660;5.616;2023-08-30T00:57:09;4.10;;;2.20;;
64543;SDS011;50936;51.660;5.616;2023-08-30T00:59:57;4.43;;;2.60;;
64543;SDS011;50936;51.660;5.616;2023-08-30T01:02:44;4.22;;;2.42;;
64543;SDS011;50936;51.660;5.616;2023-08-30T01:05:32;5.10;;;2.72;;
64543;SDS011;50936;51.660;5.616;2023-08-30T01:08:19;5.93;;;2.65;;
64543;SDS011;50936;51.660;5.616;2023-08-30T01:11:20;5.20;;;2.65;;
64543;SDS011;50936;51.660;5.616;2023-08-30T01:14:38;4.63;;;2.60;;
64543;SDS011;50936;51.660;5.616;2023-08-30T01:17:37;5.25;;;2.50;;
64543;SDS011;50936;51.660;5.616;2023-08-30T01:20:29;5.20;;;2.78;;
64543;SDS011;50936;51.660;5.616;2023-08-30T01:23:40;4.90;;;2.70;;
64543;SDS011;50936;51.660;5.616;2023-08-30T01:30:02;6.70;;;3.03;;
64543;SDS011;50936;51.660;5.616;2023-08-30T01:32:54;5.47;;;2.83;;
64543;SDS011;50936;51.660;5.616;2023-08-30T01:35:43;4.72;;;2.70;;
64543;SDS011;50936;51.660;5.616;2023-08-30T01:38:32;5.13;;;2.80;;
64543;SDS011;50936;51.660;5.616;2023-08-30T01:41:21;5.30;;;2.78;;
64543;SDS011;50936;51.660;5.616;2023-08-30T01:44:09;4.78;;;2.63;;
64543;SDS011;50936;51.660;5.616;2023-08-30T01:46:59;4.55;;;2.60;;
64543;SDS011;50936;51.660;5.616;2023-08-30T01:49:49;4.28;;;2.38;;
64543;SDS011;50936;51.660;5.616;2023-08-30T01:52:37;4.45;;;2.83;;
64543;SDS011;50936;51.660;5.616;2023-08-30T01:55:27;6.68;;;3.03;;
64543;SDS011;50936;51.660;5.616;2023-08-30T01:58:18;5.90;;;2.83;;
64543;SDS011;50936;51.660;5.616;2023-08-30T02:01:06;6.03;;;2.88;;
64543;SDS011;50936;51.660;5.616;2023-08-30T02:03:55;5.15;;;3.10;;
64543;SDS011;50936;51.660;5.616;2023-08-30T02:06:45;4.93;;;2.58;;
64543;SDS011;50936;51.660;5.616;2023-08-30T02:12:56;5.40;;;2.88;;
64543;SDS011;50936;51.660;5.616;2023-08-30T02:15:45;4.70;;;2.80;;
64543;SDS011;50936;51.660;5.616;2023-08-30T02:18:35;4.78;;;2.88;;
64543;SDS011;50936;51.660;5.616;2023-08-30T02:21:25;5.50;;;3.00;;
64543;SDS011;50936;51.660;5.616;2023-08-30T02:24:14;4.88;;;3.00;;
64543;SDS011;50936;51.660;5.616;2023-08-30T02:27:01;6.28;;;3.08;;
64543;SDS011;50936;51.660;5.616;2023-08-30T02:29:48;5.07;;;3.10;;
64543;SDS011;50936;51.660;5.616;2023-08-30T02:32:36;4.97;;;2.63;;
64543;SDS011;50936;51.660;5.616;2023-08-30T02:35:23;4.65;;;3.00;;
64543;SDS011;50936;51.660;5.616;2023-08-30T02:38:10;5.40;;;2.70;;
64543;SDS011;50936;51.660;5.616;2023-08-30T02:40:57;5.90;;;2.75;;
64543;SDS011;50936;51.660;5.616;2023-08-30T02:43:44;4.60;;;2.70;;
64543;SDS011;50936;51.660;5.616;2023-08-30T02:46:32;6.43;;;2.85;;
64543;SDS011;50936;51.660;5.616;2023-08-30T02:49:19;5.20;;;2.83;;
64543;SDS011;50936;51.660;5.616;2023-08-30T02:52:06;4.57;;;2.75;;
64543;SDS011;50936;51.660;5.616;2023-08-30T02:54:53;4.47;;;2.58;;
64543;SDS011;50936;51.660;5.616;2023-08-30T02:57:40;5.30;;;2.88;;
64543;SDS011;50936;51.660;5.616;2023-08-30T03:00:28;3.72;;;2.63;;
64543;SDS011;50936;51.660;5.616;2023-08-30T03:03:16;5.22;;;3.08;;
64543;SDS011;50936;51.660;5.616;2023-08-30T03:06:03;4.53;;;2.67;;
64543;SDS011;50936;51.660;5.616;2023-08-30T03:08:51;6.63;;;3.00;;
64543;SDS011;50936;51.660;5.616;2023-08-30T03:11:40;7.13;;;3.00;;
64543;SDS011;50936;51.660;5.616;2023-08-30T03:14:27;4.82;;;2.65;;
64543;SDS011;50936;51.660;5.616;2023-08-30T03:17:15;5.00;;;2.78;;
64543;SDS011;50936;51.660;5.616;2023-08-30T03:20:02;5.13;;;2.95;;
64543;SDS011;50936;51.660;5.616;2023-08-30T03:22:50;4.65;;;2.65;;
64543;SDS011;50936;51.660;5.616;2023-08-30T03:25:37;5.55;;;2.75;;
64543;SDS011;50936;51.660;5.616;2023-08-30T03:28:25;4.63;;;2.92;;
64543;SDS011;50936;51.660;5.616;2023-08-30T03:31:18;5.32;;;2.97;;
64543;SDS011;50936;51.660;5.616;2023-08-30T03:34:07;4.97;;;2.72;;
64543;SDS011;50936;51.660;5.616;2023-08-30T03:36:54;6.43;;;3.35;;
64543;SDS011;50936;51.660;5.616;2023-08-30T03:39:42;4.30;;;2.75;;
64543;SDS011;50936;51.660;5.616;2023-08-30T03:42:29;6.40;;;2.70;;
64543;SDS011;50936;51.660;5.616;2023-08-30T03:45:17;4.90;;;2.80;;
64543;SDS011;50936;51.660;5.616;2023-08-30T03:48:04;4.40;;;2.78;;
64543;SDS011;50936;51.660;5.616;2023-08-30T03:50:52;5.35;;;3.05;;
64543;SDS011;50936;51.660;5.616;2023-08-30T03:53:40;4.57;;;2.75;;
64543;SDS011;50936;51.660;5.616;2023-08-30T03:56:28;4.97;;;2.80;;
64543;SDS011;50936;51.660;5.616;2023-08-30T03:59:15;4.72;;;2.80;;
64543;SDS011;50936;51.660;5.616;2023-08-30T04:02:02;5.25;;;2.92;;
64543;SDS011;50936;51.660;5.616;2023-08-30T04:04:50;4.97;;;2.92;;
64543;SDS011;50936;51.660;5.616;2023-08-30T04:07:38;5.15;;;2.80;;
64543;SDS011;50936;51.660;5.616;2023-08-30T04:10:25;4.70;;;2.78;;
64543;SDS011;50936;51.660;5.616;2023-08-30T04:13:12;4.50;;;2.70;;
64543;SDS011;50936;51.660;5.616;2023-08-30T04:15:59;7.18;;;2.90;;
64543;SDS011;50936;51.660;5.616;2023-08-30T04:18:46;5.43;;;2.88;;
64543;SDS011;50936;51.660;5.616;2023-08-30T04:21:34;4.05;;;2.40;;
64543;SDS011;50936;51.660;5.616;2023-08-30T04:24:21;5.03;;;2.85;;
64543;SDS011;50936;51.660;5.616;2023-08-30T04:27:08;4.82;;;2.58;;
64543;SDS011;50936;51.660;5.616;2023-08-30T04:29:55;4.30;;;2.45;;
64543;SDS011;50936;51.660;5.616;2023-08-30T04:32:42;4.88;;;3.08;;
64543;SDS011;50936;51.660;5.616;2023-08-30T04:35:30;4.00;;;2.58;;
64543;SDS011;50936;51.660;5.616;2023-08-30T04:38:18;5.68;;;2.85;;
64543;SDS011;50936;51.660;5.616;2023-08-30T04:41:07;4.80;;;2.78;;
64543;SDS011;50936;51.660;5.616;2023-08-30T04:43:55;5.30;;;3.00;;
64543;SDS011;50936;51.660;5.616;2023-08-30T04:46:42;4.68;;;2.70;;
64543;SDS011;50936;51.660;5.616;2023-08-30T04:49:30;4.55;;;3.00;;
64543;SDS011;50936;51.660;5.616;2023-08-30T04:52:17;5.55;;;3.25;;
64543;SDS011;50936;51.660;5.616;2023-08-30T04:55:04;5.20;;;2.92;;
64543;SDS011;50936;51.660;5.616;2023-08-30T04:57:53;5.70;;;3.00;;
64543;SDS011;50936;51.660;5.616;2023-08-30T05:00:41;5.05;;;3.00;;
64543;SDS011;50936;51.660;5.616;2023-08-30T05:03:28;4.97;;;2.80;;
64543;SDS011;50936;51.660;5.616;2023-08-30T05:09:06;4.55;;;2.72;;
64543;SDS011;50936;51.660;5.616;2023-08-30T05:11:53;4.50;;;2.80;;
64543;SDS011;50936;51.660;5.616;2023-08-30T05:14:41;4.35;;;2.80;;
64543;SDS011;50936;51.660;5.616;2023-08-30T05:17:28;4.57;;;2.75;;
64543;SDS011;50936;51.660;5.616;2023-08-30T05:20:16;4.40;;;2.63;;
64543;SDS011;50936;51.660;5.616;2023-08-30T05:23:04;5.90;;;2.75;;
64543;SDS011;50936;51.660;5.616;2023-08-30T05:25:51;5.72;;;2.58;;
64543;SDS011;50936;51.660;5.616;2023-08-30T05:28:38;4.85;;;2.63;;
64543;SDS011;50936;51.660;5.616;2023-08-30T05:31:27;4.22;;;2.80;;
64543;SDS011;50936;51.660;5.616;2023-08-30T05:34:21;4.38;;;2.72;;
64543;SDS011;50936;51.660;5.616;2023-08-30T05:37:27;5.47;;;2.88;;
64543;SDS011;50936;51.660;5.616;2023-08-30T05:40:32;4.47;;;3.05;;
64543;SDS011;50936;51.660;5.616;2023-08-30T05:43:21;5.72;;;2.60;;
64543;SDS011;50936;51.660;5.616;2023-08-30T05:46:09;5.38;;;2.75;;
64543;SDS011;50936;51.660;5.616;2023-08-30T05:49:01;5.68;;;2.92;;
64543;SDS011;50936;51.660;5.616;2023-08-30T05:51:49;4.25;;;2.65;;
64543;SDS011;50936;51.660;5.616;2023-08-30T05:54:37;4.18;;;2.83;;
64543;SDS011;50936;51.660;5.616;2023-08-30T05:57:24;5.45;;;2.80;;
64543;SDS011;50936;51.660;5.616;2023-08-30T06:00:12;6.90;;;3.00;;
64543;SDS011;50936;51.660;5.616;2023-08-30T06:03:00;6.30;;;3.00;;
64543;SDS011;50936;51.660;5.616;2023-08-30T06:05:47;6.60;;;3.08;;
64543;SDS011;50936;51.660;5.616;2023-08-30T06:08:35;5.57;;;2.92;;
64543;SDS011;50936;51.660;5.616;2023-08-30T06:11:22;7.32;;;2.85;;
64543;SDS011;50936;51.660;5.616;2023-08-30T06:14:09;4.60;;;2.60;;
64543;SDS011;50936;51.660;5.616;2023-08-30T06:16:57;6.03;;;2.97;;
64543;SDS011;50936;51.660;5.616;2023-08-30T06:19:44;3.90;;;2.67;;
64543;SDS011;50936;51.660;5.616;2023-08-30T06:22:32;4.93;;;2.78;;
64543;SDS011;50936;51.660;5.616;2023-08-30T06:25:19;4.28;;;2.88;;
64543;SDS011;50936;51.660;5.616;2023-08-30T06:28:06;4.72;;;2.72;;
64543;SDS011;50936;51.660;5.616;2023-08-30T06:30:54;5.10;;;3.00;;
64543;SDS011;50936;51.660;5.616;2023-08-30T06:33:41;5.03;;;2.88;;
64543;SDS011;50936;51.660;5.616;2023-08-30T06:36:29;5.60;;;3.10;;
64543;SDS011;50936;51.660;5.616;2023-08-30T06:39:19;6.38;;;2.97;;
64543;SDS011;50936;51.660;5.616;2023-08-30T06:42:06;7.30;;;2.83;;
64543;SDS011;50936;51.660;5.616;2023-08-30T06:44:54;6.43;;;2.97;;
64543;SDS011;50936;51.660;5.616;2023-08-30T06:47:41;5.60;;;3.08;;
64543;SDS011;50936;51.660;5.616;2023-08-30T06:50:28;7.78;;;2.90;;
64543;SDS011;50936;51.660;5.616;2023-08-30T06:53:15;8.27;;;2.97;;
64543;SDS011;50936;51.660;5.616;2023-08-30T06:56:02;5.03;;;2.95;;
64543;SDS011;50936;51.660;5.616;2023-08-30T06:58:50;6.55;;;3.25;;
64543;SDS011;50936;51.660;5.616;2023-08-30T07:01:37;13.85;;;3.95;;
64543;SDS011;50936;51.660;5.616;2023-08-30T07:04:25;11.68;;;4.65;;
64543;SDS011;50936;51.660;5.616;2023-08-30T07:07:12;20.73;;;5.47;;
64543;SDS011;50936;51.660;5.616;2023-08-30T07:10:00;16.45;;;5.45;;
64543;SDS011;50936;51.660;5.616;2023-08-30T07:12:47;21.80;;;5.72;;
64543;SDS011;50936;51.660;5.616;2023-08-30T07:15:36;21.23;;;5.93;;
64543;SDS011;50936;51.660;5.616;2023-08-30T07:18:25;16.77;;;5.80;;
64543;SDS011;50936;51.660;5.616;2023-08-30T07:21:13;15.38;;;5.57;;
64543;SDS011;50936;51.660;5.616;2023-08-30T07:24:00;16.45;;;6.13;;
64543;SDS011;50936;51.660;5.616;2023-08-30T07:26:47;18.95;;;5.90;;
64543;SDS011;50936;51.660;5.616;2023-08-30T07:29:34;17.42;;;5.63;;
64543;SDS011;50936;51.660;5.616;2023-08-30T07:32:21;15.80;;;5.70;;
64543;SDS011;50936;51.660;5.616;2023-08-30T07:35:09;17.20;;;4.75;;
64543;SDS011;50936;51.660;5.616;2023-08-30T07:37:58;17.80;;;5.38;;
64543;SDS011;50936;51.660;5.616;2023-08-30T07:40:46;12.43;;;5.40;;
64543;SDS011;50936;51.660;5.616;2023-08-30T07:43:33;19.27;;;5.35;;
64543;SDS011;50936;51.660;5.616;2023-08-30T07:46:20;15.85;;;5.15;;
64543;SDS011;50936;51.660;5.616;2023-08-30T07:49:07;18.08;;;5.75;;
64543;SDS011;50936;51.660;5.616;2023-08-30T07:51:54;15.13;;;5.45;;
64543;SDS011;50936;51.660;5.616;2023-08-30T07:54:42;12.27;;;4.80;;
64543;SDS011;50936;51.660;5.616;2023-08-30T07:57:29;13.35;;;5.18;;
64543;SDS011;50936;51.660;5.616;2023-08-30T08:00:16;13.20;;;4.88;;
64543;SDS011;50936;51.660;5.616;2023-08-30T08:03:04;11.63;;;4.95;;
64543;SDS011;50936;51.660;5.616;2023-08-30T08:05:51;12.10;;;4.40;;
64543;SDS011;50936;51.660;5.616;2023-08-30T08:08:38;13.15;;;4.78;;
64543;SDS011;50936;51.660;5.616;2023-08-30T08:11:26;14.70;;;4.85;;
64543;SDS011;50936;51.660;5.616;2023-08-30T08:14:13;11.88;;;4.28;;
64543;SDS011;50936;51.660;5.616;2023-08-30T08:17:00;14.13;;;4.85;;
64543;SDS011;50936;51.660;5.616;2023-08-30T08:19:48;8.43;;;3.97;;
64543;SDS011;50936;51.660;5.616;2023-08-30T08:22:35;12.50;;;3.92;;
64543;SDS011;50936;51.660;5.616;2023-08-30T08:25:22;11.15;;;4.38;;
64543;SDS011;50936;51.660;5.616;2023-08-30T08:28:10;8.02;;;3.97;;
64543;SDS011;50936;51.660;5.616;2023-08-30T08:30:58;9.30;;;4.82;;
64543;SDS011;50936;51.660;5.616;2023-08-30T08:33:45;8.73;;;3.95;;
64543;SDS011;50936;51.660;5.616;2023-08-30T08:36:32;8.48;;;3.78;;
64543;SDS011;50936;51.660;5.616;2023-08-30T08:39:20;7.18;;;3.22;;
64543;SDS011;50936;51.660;5.616;2023-08-30T08:42:07;8.18;;;3.20;;
64543;SDS011;50936;51.660;5.616;2023-08-30T08:44:54;4.32;;;2.50;;
64543;SDS011;50936;51.660;5.616;2023-08-30T08:47:45;6.03;;;3.10;;
64543;SDS011;50936;51.660;5.616;2023-08-30T08:50:34;6.13;;;2.88;;
64543;SDS011;50936;51.660;5.616;2023-08-30T08:53:22;3.40;;;1.90;;
64543;SDS011;50936;51.660;5.616;2023-08-30T08:56:09;4.55;;;2.20;;
64543;SDS011;50936;51.660;5.616;2023-08-30T08:58:59;4.78;;;2.38;;
64543;SDS011;50936;51.660;5.616;2023-08-30T09:01:47;3.70;;;2.10;;
64543;SDS011;50936;51.660;5.616;2023-08-30T09:04:35;4.53;;;2.05;;
64543;SDS011;50936;51.660;5.616;2023-08-30T09:07:24;4.10;;;2.17;;
64543;SDS011;50936;51.660;5.616;2023-08-30T09:10:13;3.95;;;2.20;;
64543;SDS011;50936;51.660;5.616;2023-08-30T09:13:01;4.22;;;2.08;;
64543;SDS011;50936;51.660;5.616;2023-08-30T09:15:48;4.75;;;2.55;;
64543;SDS011;50936;51.660;5.616;2023-08-30T09:18:35;4.25;;;1.80;;
64543;SDS011;50936;51.660;5.616;2023-08-30T09:21:23;5.28;;;2.35;;
64543;SDS011;50936;51.660;5.616;2023-08-30T09:24:10;4.57;;;2.42;;
64543;SDS011;50936;51.660;5.616;2023-08-30T09:26:57;4.25;;;1.95;;
64543;SDS011;50936;51.660;5.616;2023-08-30T09:29:44;4.78;;;2.08;;
64543;SDS011;50936;51.660;5.616;2023-08-30T09:32:37;3.88;;;1.75;;
64543;SDS011;50936;51.660;5.616;2023-08-30T09:35:29;5.10;;;1.65;;
64543;SDS011;50936;51.660;5.616;2023-08-30T09:38:17;4.00;;;1.90;;
64543;SDS011;50936;51.660;5.616;2023-08-30T09:41:06;3.33;;;1.80;;
64543;SDS011;50936;51.660;5.616;2023-08-30T09:43:54;3.92;;;1.90;;
64543;SDS011;50936;51.660;5.616;2023-08-30T09:46:59;2.42;;;1.60;;
64543;SDS011;50936;51.660;5.616;2023-08-30T09:49:50;3.28;;;1.85;;
64543;SDS011;50936;51.660;5.616;2023-08-30T09:52:42;6.07;;;2.17;;
64543;SDS011;50936;51.660;5.616;2023-08-30T09:55:30;4.80;;;2.28;;
64543;SDS011;50936;51.660;5.616;2023-08-30T09:58:17;3.85;;;2.00;;
64543;SDS011;50936;51.660;5.616;2023-08-30T10:01:07;3.65;;;1.80;;
64543;SDS011;50936;51.660;5.616;2023-08-30T10:03:55;3.33;;;1.70;;
64543;SDS011;50936;51.660;5.616;2023-08-30T10:06:44;3.38;;;1.83;;
64543;SDS011;50936;51.660;5.616;2023-08-30T10:09:33;3.22;;;1.77;;
64543;SDS011;50936;51.660;5.616;2023-08-30T10:12:21;3.55;;;2.10;;
64543;SDS011;50936;51.660;5.616;2023-08-30T10:15:09;3.92;;;2.20;;
64543;SDS011;50936;51.660;5.616;2023-08-30T10:17:56;4.03;;;2.00;;
64543;SDS011;50936;51.660;5.616;2023-08-30T10:20:47;4.63;;;2.25;;
64543;SDS011;50936;51.660;5.616;2023-08-30T10:23:36;5.22;;;2.70;;
64543;SDS011;50936;51.660;5.616;2023-08-30T10:26:26;4.05;;;2.53;;
64543;SDS011;50936;51.660;5.616;2023-08-30T10:29:16;4.00;;;2.10;;
64543;SDS011;50936;51.660;5.616;2023-08-30T10:32:06;4.00;;;2.03;;
64543;SDS011;50936;51.660;5.616;2023-08-30T10:34:53;3.38;;;2.17;;
64543;SDS011;50936;51.660;5.616;2023-08-30T10:37:41;3.75;;;2.22;;
64543;SDS011;50936;51.660;5.616;2023-08-30T10:40:29;7.35;;;2.15;;
64543;SDS011;50936;51.660;5.616;2023-08-30T10:43:16;3.97;;;2.38;;
64543;SDS011;50936;51.660;5.616;2023-08-30T10:46:04;3.80;;;2.03;;
64543;SDS011;50936;51.660;5.616;2023-08-30T10:52:15;4.40;;;2.20;;
64543;SDS011;50936;51.660;5.616;2023-08-30T10:55:05;3.50;;;2.40;;
64543;SDS011;50936;51.660;5.616;2023-08-30T10:57:59;3.83;;;2.03;;
64543;SDS011;50936;51.660;5.616;2023-08-30T11:00:49;3.60;;;2.28;;
64543;SDS011;50936;51.660;5.616;2023-08-30T11:03:37;4.43;;;2.13;;
64543;SDS011;50936;51.660;5.616;2023-08-30T11:06:26;2.65;;;1.90;;
64543;SDS011;50936;51.660;5.616;2023-08-30T11:09:14;3.83;;;2.20;;
64543;SDS011;50936;51.660;5.616;2023-08-30T11:12:04;4.05;;;2.10;;
64543;SDS011;50936;51.660;5.616;2023-08-30T11:14:53;2.92;;;1.83;;
64543;SDS011;50936;51.660;5.616;2023-08-30T11:17:44;3.75;;;2.00;;
64543;SDS011;50936;51.660;5.616;2023-08-30T11:20:32;3.78;;;2.28;;
64543;SDS011;50936;51.660;5.616;2023-08-30T11:23:19;3.92;;;1.88;;
64543;SDS011;50936;51.660;5.616;2023-08-30T11:26:07;4.05;;;2.30;;
64543;SDS011;50936;51.660;5.616;2023-08-30T11:28:54;3.42;;;2.05;;
64543;SDS011;50936;51.660;5.616;2023-08-30T11:31:41;3.53;;;1.88;;
64543;SDS011;50936;51.660;5.616;2023-08-30T11:34:32;6.47;;;2.08;;
64543;SDS011;50936;51.660;5.616;2023-08-30T11:37:19;4.25;;;2.22;;
64543;SDS011;50936;51.660;5.616;2023-08-30T11:40:07;3.90;;;2.10;;
64543;SDS011;50936;51.660;5.616;2023-08-30T11:42:54;4.45;;;2.00;;
64543;SDS011;50936;51.660;5.616;2023-08-30T11:45:42;5.38;;;2.30;;
64543;SDS011;50936;51.660;5.616;2023-08-30T11:48:29;3.83;;;2.00;;
64543;SDS011;50936;51.660;5.616;2023-08-30T11:51:17;2.67;;;1.83;;
64543;SDS011;50936;51.660;5.616;2023-08-30T11:54:05;4.00;;;2.20;;
64543;SDS011;50936;51.660;5.616;2023-08-30T11:56:54;4.78;;;2.28;;
64543;SDS011;50936;51.660;5.616;2023-08-30T11:59:42;3.47;;;2.08;;
64543;SDS011;50936;51.660;5.616;2023-08-30T12:02:30;3.53;;;2.03;;
64543;SDS011;50936;51.660;5.616;2023-08-30T12:05:17;3.42;;;2.10;;
64543;SDS011;50936;51.660;5.616;2023-08-30T12:08:04;5.10;;;2.00;;
64543;SDS011;50936;51.660;5.616;2023-08-30T12:10:52;4.00;;;2.20;;
64543;SDS011;50936;51.660;5.616;2023-08-30T12:13:41;4.68;;;2.00;;
64543;SDS011;50936;51.660;5.616;2023-08-30T12:16:28;5.57;;;2.20;;
64543;SDS011;50936;51.660;5.616;2023-08-30T12:19:16;3.40;;;1.85;;
64543;SDS011;50936;51.660;5.616;2023-08-30T12:22:04;3.20;;;1.75;;
64543;SDS011;50936;51.660;5.616;2023-08-30T12:24:52;5.03;;;2.08;;
64543;SDS011;50936;51.660;5.616;2023-08-30T12:27:39;5.80;;;2.35;;
64543;SDS011;50936;51.660;5.616;2023-08-30T12:30:27;3.45;;;1.83;;
64543;SDS011;50936;51.660;5.616;2023-08-30T12:33:16;7.97;;;2.17;;
64543;SDS011;50936;51.660;5.616;2023-08-30T12:36:03;3.67;;;2.08;;
64543;SDS011;50936;51.660;5.616;2023-08-30T12:38:51;3.92;;;1.90;;
64543;SDS011;50936;51.660;5.616;2023-08-30T12:41:38;3.50;;;1.80;;
64543;SDS011;50936;51.660;5.616;2023-08-30T12:44:28;4.75;;;2.00;;
64543;SDS011;50936;51.660;5.616;2023-08-30T12:47:16;5.07;;;2.22;;
64543;SDS011;50936;51.660;5.616;2023-08-30T12:50:03;4.03;;;1.90;;
64543;SDS011;50936;51.660;5.616;2023-08-30T12:52:51;5.78;;;2.05;;
64543;SDS011;50936;51.660;5.616;2023-08-30T12:55:39;4.88;;;2.20;;
64543;SDS011;50936;51.660;5.616;2023-08-30T12:58:27;3.58;;;1.83;;
64543;SDS011;50936;51.660;5.616;2023-08-30T13:01:14;4.97;;;2.17;;
64543;SDS011;50936;51.660;5.616;2023-08-30T13:04:01;6.43;;;2.33;;
64543;SDS011;50936;51.660;5.616;2023-08-30T13:06:50;6.03;;;2.30;;
64543;SDS011;50936;51.660;5.616;2023-08-30T13:09:37;4.18;;;2.20;;
64543;SDS011;50936;51.660;5.616;2023-08-30T13:12:24;5.15;;;2.00;;
64543;SDS011;50936;51.660;5.616;2023-08-30T13:15:12;5.47;;;2.00;;
64543;SDS011;50936;51.660;5.616;2023-08-30T13:17:59;5.00;;;1.90;;
64543;SDS011;50936;51.660;5.616;2023-08-30T13:20:46;8.15;;;2.00;;
64543;SDS011;50936;51.660;5.616;2023-08-30T13:23:33;7.13;;;2.70;;
64543;SDS011;50936;51.660;5.616;2023-08-30T13:26:21;3.33;;;1.90;;
64543;SDS011;50936;51.660;5.616;2023-08-30T13:29:08;6.40;;;2.42;;
64543;SDS011;50936;51.660;5.616;2023-08-30T13:31:55;4.95;;;2.20;;
64543;SDS011;50936;51.660;5.616;2023-08-30T13:34:42;4.55;;;2.17;;
64543;SDS011;50936;51.660;5.616;2023-08-30T13:37:32;5.95;;;2.33;;
64543;SDS011;50936;51.660;5.616;2023-08-30T13:40:19;4.55;;;1.90;;
64543;SDS011;50936;51.660;5.616;2023-08-30T13:43:07;6.72;;;2.30;;
64543;SDS011;50936;51.660;5.616;2023-08-30T13:45:58;6.57;;;2.20;;
64543;SDS011;50936;51.660;5.616;2023-08-30T13:48:46;8.95;;;2.25;;
64543;SDS011;50936;51.660;5.616;2023-08-30T13:51:34;5.50;;;2.10;;
64543;SDS011;50936;51.660;5.616;2023-08-30T13:54:21;4.18;;;1.90;;
64543;SDS011;50936;51.660;5.616;2023-08-30T13:57:08;5.97;;;2.28;;
64543;SDS011;50936;51.660;5.616;2023-08-30T13:59:56;5.97;;;2.00;;
64543;SDS011;50936;51.660;5.616;2023-08-30T14:02:43;7.57;;;2.17;;
64543;SDS011;50936;51.660;5.616;2023-08-30T14:05:30;4.80;;;1.80;;
64543;SDS011;50936;51.660;5.616;2023-08-30T14:08:17;5.07;;;2.03;;
64543;SDS011;50936;51.660;5.616;2023-08-30T14:11:05;6.03;;;2.00;;
64543;SDS011;50936;51.660;5.616;2023-08-30T14:13:53;5.85;;;1.85;;
64543;SDS011;50936;51.660;5.616;2023-08-30T14:16:41;6.40;;;1.98;;
64543;SDS011;50936;51.660;5.616;2023-08-30T14:19:28;5.07;;;1.83;;
64543;SDS011;50936;51.660;5.616;2023-08-30T14:22:15;6.28;;;2.20;;
64543;SDS011;50936;51.660;5.616;2023-08-30T14:25:03;6.35;;;2.13;;
64543;SDS011;50936;51.660;5.616;2023-08-30T14:27:58;5.90;;;1.83;;
64543;SDS011;50936;51.660;5.616;2023-08-30T14:30:46;4.68;;;1.80;;
64543;SDS011;50936;51.660;5.616;2023-08-30T14:33:33;6.32;;;1.80;;
64543;SDS011;50936;51.660;5.616;2023-08-30T14:36:21;4.43;;;1.70;;
64543;SDS011;50936;51.660;5.616;2023-08-30T14:39:08;4.82;;;1.83;;
64543;SDS011;50936;51.660;5.616;2023-08-30T14:41:58;2.88;;;1.50;;
64543;SDS011;50936;51.660;5.616;2023-08-30T14:44:48;5.32;;;1.60;;
64543;SDS011;50936;51.660;5.616;2023-08-30T14:47:37;3.88;;;1.75;;
64543;SDS011;50936;51.660;5.616;2023-08-30T14:50:24;5.90;;;1.85;;
64543;SDS011;50936;51.660;5.616;2023-08-30T14:53:12;5.15;;;1.80;;
64543;SDS011;50936;51.660;5.616;2023-08-30T14:55:59;6.60;;;1.80;;
64543;SDS011;50936;51.660;5.616;2023-08-30T14:58:46;5.07;;;1.75;;
64543;SDS011;50936;51.660;5.616;2023-08-30T15:01:37;3.35;;;1.60;;
64543;SDS011;50936;51.660;5.616;2023-08-30T15:04:25;5.93;;;1.80;;
64543;SDS011;50936;51.660;5.616;2023-08-30T15:07:12;4.93;;;1.38;;
64543;SDS011;50936;51.660;5.616;2023-08-30T15:10:00;36.85;;;11.50;;
64543;SDS011;50936;51.660;5.616;2023-08-30T15:12:47;32.28;;;11.90;;
64543;SDS011;50936;51.660;5.616;2023-08-30T15:15:34;62.38;;;21.17;;
64543;SDS011;50936;51.660;5.616;2023-08-30T15:18:21;92.65;;;30.17;;
64543;SDS011;50936;51.660;5.616;2023-08-30T15:21:09;106.68;;;39.13;;
64543;SDS011;50936;51.660;5.616;2023-08-30T15:23:56;136.40;;;47.53;;
64543;SDS011;50936;51.660;5.616;2023-08-30T15:26:43;129.15;;;47.40;;
64543;SDS011;50936;51.660;5.616;2023-08-30T15:29:30;129.52;;;49.00;;
64543;SDS011;50936;51.660;5.616;2023-08-30T15:32:17;130.25;;;48.50;;
64543;SDS011;50936;51.660;5.616;2023-08-30T15:35:05;132.82;;;45.58;;
64543;SDS011;50936;51.660;5.616;2023-08-30T15:37:52;123.38;;;46.08;;
64543;SDS011;50936;51.660;5.616;2023-08-30T15:40:39;116.03;;;44.45;;
64543;SDS011;50936;51.660;5.616;2023-08-30T15:43:27;115.88;;;42.13;;
64543;SDS011;50936;51.660;5.616;2023-08-30T15:46:14;111.82;;;40.58;;
64543;SDS011;50936;51.660;5.616;2023-08-30T15:49:02;106.93;;;41.33;;
64543;SDS011;50936;51.660;5.616;2023-08-30T15:51:49;100.55;;;37.90;;
64543;SDS011;50936;51.660;5.616;2023-08-30T15:54:36;99.47;;;37.30;;
64543;SDS011;50936;51.660;5.616;2023-08-30T15:57:24;95.90;;;36.70;;
64543;SDS011;50936;51.660;5.616;2023-08-30T16:00:11;97.57;;;35.25;;
64543;SDS011;50936;51.660;5.616;2023-08-30T16:02:59;88.63;;;34.22;;
64543;SDS011;50936;51.660;5.616;2023-08-30T16:05:47;95.57;;;32.95;;
64543;SDS011;50936;51.660;5.616;2023-08-30T16:08:34;82.03;;;30.42;;
64543;SDS011;50936;51.660;5.616;2023-08-30T16:11:21;86.07;;;30.33;;
64543;SDS011;50936;51.660;5.616;2023-08-30T16:14:08;78.25;;;28.73;;
64543;SDS011;50936;51.660;5.616;2023-08-30T16:16:56;81.65;;;27.88;;
64543;SDS011;50936;51.660;5.616;2023-08-30T16:19:44;76.55;;;27.17;;
64543;SDS011;50936;51.660;5.616;2023-08-30T16:22:31;71.00;;;25.35;;
64543;SDS011;50936;51.660;5.616;2023-08-30T16:25:20;70.60;;;25.30;;
64543;SDS011;50936;51.660;5.616;2023-08-30T16:28:07;69.43;;;25.35;;
64543;SDS011;50936;51.660;5.616;2023-08-30T16:30:57;64.30;;;23.88;;
64543;SDS011;50936;51.660;5.616;2023-08-30T16:33:46;63.42;;;23.38;;
64543;SDS011;50936;51.660;5.616;2023-08-30T16:36:33;58.33;;;23.08;;
64543;SDS011;50936;51.660;5.616;2023-08-30T16:39:21;62.22;;;23.17;;
64543;SDS011;50936;51.660;5.616;2023-08-30T16:42:08;59.78;;;21.02;;
64543;SDS011;50936;51.660;5.616;2023-08-30T16:44:55;54.33;;;21.25;;
64543;SDS011;50936;51.660;5.616;2023-08-30T16:47:42;52.40;;;20.00;;
64543;SDS011;50936;51.660;5.616;2023-08-30T16:50:49;51.97;;;19.60;;
64543;SDS011;50936;51.660;5.616;2023-08-30T16:53:37;58.30;;;20.52;;
64543;SDS011;50936;51.660;5.616;2023-08-30T16:56:24;46.15;;;18.90;;
64543;SDS011;50936;51.660;5.616;2023-08-30T16:59:11;48.28;;;18.92;;
64543;SDS011;50936;51.660;5.616;2023-08-30T17:01:59;45.22;;;18.35;;